Terminal Aerodrome Forecast
Issued by NWS Charleston, SC

Home | Current Version | Previous Version | Text Only | Print | Product List | Glossary On
Versions: 1 2 3 4 5 6 7 8 9 10 11 12 13 14 15 16 17 18 19 20 21 22 23 24 25 26 27
000
FTUS42 KCHS 301500 AAA
TAFSAV
TAF AMD
KSAV 301508Z 3015/0112 35005KT P6SM OVC007
      TEMPO 3016/3017 SCT007 SCT025
     FM301700 04008KT P6SM SCT035
     FM010000 VRB03KT P6SM SKC
     FM010800 00000KT 4SM BR SCT003=

USA.gov is the U.S. government's official web portal to all federal, state and local government web resources and services.